Time;durP1;ratioP1;P1;durP2;ratioP2;P2;SDS_P1;SDS_P2;PMS_P1;PMS_P2;Temp;Humidity;BMP_temperature;BMP_pressure;BME280_temperature;BME280_humidity;BME280_pressure;Samples;Min_cycle;Max_cycle;Signal;HPM_P1;HPM_P2
2022/06/22 00:02:24;;;;;;;3.25;3.03;;;16.60;99.90;;;;;;5035924;28;20048;-83
2022/06/22 00:05:29;;;;;;;23.63;4.63;;;16.40;99.90;;;;;;5047017;28;20412;-83
2022/06/22 00:08:22;;;;;;;4.00;3.70;;;16.20;99.90;;;;;;5032792;28;20045;-82
2022/06/22 00:11:09;;;;;;;5.13;3.10;;;16.10;99.90;;;;;;5065372;28;20415;-82
2022/06/22 00:14:02;;;;;;;3.88;3.58;;;16.10;99.90;;;;;;5049836;28;20562;-82
2022/06/22 00:16:53;;;;;;;5.43;3.42;;;16.00;99.90;;;;;;5039272;28;20044;-82
2022/06/22 00:19:44;;;;;;;4.75;2.75;;;16.00;99.90;;;;;;5049981;28;20040;-82
2022/06/22 00:22:28;;;;;;;5.03;3.45;;;16.00;99.90;;;;;;5067811;28;20604;-82
2022/06/22 00:25:35;;;;;;;2.78;2.55;;;15.90;99.90;;;;;;5085497;28;20040;-82
2022/06/22 00:28:37;;;;;;;3.10;2.72;;;15.90;99.90;;;;;;5084822;28;20047;-82
2022/06/22 00:31:32;;;;;;;3.88;3.05;;;15.90;99.90;;;;;;5070009;28;20063;-82
2022/06/22 00:34:28;;;;;;;3.15;2.95;;;15.90;99.90;;;;;;5069684;28;20376;-82
2022/06/22 00:37:34;;;;;;;4.25;3.05;;;15.80;99.90;;;;;;5089174;28;20495;-82
2022/06/22 00:40:16;;;;;;;3.53;3.22;;;15.80;99.90;;;;;;5070931;28;20040;-82
2022/06/22 00:43:31;;;;;;;4.20;2.95;;;15.90;99.90;;;;;;5070148;28;20115;-83
2022/06/22 00:48:40;;;;;;;3.70;3.47;;;15.90;99.90;;;;;;5089100;28;20047;-82
2022/06/22 00:53:23;;;;;;;5.03;3.25;;;15.80;99.90;;;;;;5088581;28;20729;-83
2022/06/22 01:06:52;;;;;;;4.32;3.88;;;15.70;99.90;;;;;;5078573;28;20043;-82
2022/06/22 01:16:04;;;;;;;4.20;3.80;;;15.70;99.90;;;;;;5088059;28;20024;-82
2022/06/22 01:29:27;;;;;;;6.40;3.25;;;15.70;99.90;;;;;;5056669;28;20074;-81
2022/06/22 01:32:00;;;;;;;6.05;4.30;;;15.70;99.90;;;;;;5067940;28;20055;-81
2022/06/22 01:34:40;;;;;;;5.70;3.75;;;15.70;99.90;;;;;;5067554;28;20044;-81
2022/06/22 01:37:23;;;;;;;5.50;3.33;;;15.70;99.90;;;;;;5052850;28;20051;-82
2022/06/22 01:40:07;;;;;;;4.65;2.92;;;15.80;99.90;;;;;;5067196;28;20045;-81
2022/06/22 01:43:15;;;;;;;3.88;2.80;;;15.70;99.90;;;;;;5067444;28;20488;-81
2022/06/22 01:46:21;;;;;;;7.07;4.60;;;15.70;99.90;;;;;;5050571;28;20087;-81
2022/06/22 01:49:19;;;;;;;3.58;3.25;;;15.80;99.90;;;;;;5037130;28;20499;-81
2022/06/22 01:52:12;;;;;;;5.20;4.45;;;15.80;99.90;;;;;;5065779;28;20041;-81
2022/06/22 01:55:07;;;;;;;3.58;2.92;;;15.80;99.90;;;;;;5067502;28;20044;-82
2022/06/22 01:58:18;;;;;;;4.97;3.95;;;15.70;99.90;;;;;;5065819;28;20048;-81
2022/06/22 02:01:08;;;;;;;4.00;3.15;;;15.60;99.90;;;;;;4985931;28;20040;-81
2022/06/22 02:04:05;;;;;;;3.55;3.25;;;15.60;99.90;;;;;;5045710;28;20408;-81
2022/06/22 02:11:02;;;;;;;7.35;3.83;;;15.60;99.90;;;;;;5046567;28;20501;-81
2022/06/22 02:14:56;;;;;;;11.73;4.70;;;15.70;99.90;;;;;;5045559;28;20053;-81
2022/06/22 02:19:25;;;;;;;4.55;4.22;;;15.70;99.90;;;;;;5051711;28;20040;-82
2022/06/22 02:23:19;;;;;;;18.02;4.72;;;15.60;99.90;;;;;;5067326;28;20084;-81
2022/06/22 02:28:08;;;;;;;3.92;3.53;;;15.60;99.90;;;;;;5065680;28;20032;-81
2022/06/22 02:32:39;;;;;;;7.57;4.75;;;15.40;99.90;;;;;;5066581;28;20041;-81
2022/06/22 02:36:57;;;;;;;4.45;4.10;;;15.30;99.90;;;;;;5069889;28;20059;-82
2022/06/22 02:45:47;;;;;;;6.55;5.00;;;15.40;99.90;;;;;;5064699;28;20044;-81
2022/06/22 02:49:46;;;;;;;3.83;3.47;;;15.40;99.90;;;;;;5052317;28;20617;-81
2022/06/22 02:52:48;;;;;;;6.45;3.83;;;15.50;99.90;;;;;;5033508;28;20063;-81
2022/06/22 02:55:37;;;;;;;7.45;4.43;;;15.50;99.90;;;;;;5031953;28;20404;-81
2022/06/22 02:58:32;;;;;;;4.45;4.07;;;15.50;99.90;;;;;;5065856;28;20491;-81
2022/06/22 03:01:20;;;;;;;4.25;3.92;;;15.40;99.90;;;;;;5066473;28;20048;-80
2022/06/22 03:08:50;;;;;;;6.40;3.95;;;15.30;99.90;;;;;;5065226;28;20044;-81
2022/06/22 03:11:23;;;;;;;4.85;4.30;;;15.20;99.90;;;;;;5065845;28;20507;-81
2022/06/22 03:14:35;;;;;;;7.40;4.18;;;15.30;99.90;;;;;;5066010;28;20124;-81
2022/06/22 03:17:25;;;;;;;6.28;5.78;;;15.30;99.90;;;;;;5066263;28;20053;-81
2022/06/22 03:20:19;;;;;;;6.22;5.57;;;15.40;99.90;;;;;;5063705;28;20062;-81
2022/06/22 03:23:46;;;;;;;7.95;7.30;;;15.40;99.90;;;;;;5086186;28;20040;-81
2022/06/22 03:26:41;;;;;;;12.13;7.35;;;15.40;99.90;;;;;;5067270;28;20051;-81
2022/06/22 03:29:41;;;;;;;6.28;5.47;;;15.40;99.90;;;;;;5086408;28;20740;-82
2022/06/22 03:37:46;;;;;;;6.20;4.57;;;15.40;99.90;;;;;;5069242;28;20483;-81
2022/06/22 03:42:26;;;;;;;4.47;4.18;;;15.40;99.90;;;;;;5077971;28;20755;-81
2022/06/22 03:46:47;;;;;;;10.27;5.38;;;15.50;99.90;;;;;;5074000;28;20040;-82
2022/06/22 03:58:53;;;;;;;4.80;4.38;;;15.60;99.90;;;;;;5085606;28;20037;-81
2022/06/22 04:01:22;;;;;;;6.95;4.72;;;15.60;99.90;;;;;;5086360;28;20059;-81
2022/06/22 04:03:56;;;;;;;6.10;4.90;;;15.60;99.90;;;;;;5056098;28;20523;-81
2022/06/22 04:06:35;;;;;;;6.70;3.47;;;15.70;99.90;;;;;;5067911;28;20055;-81
2022/06/22 04:09:21;;;;;;;5.25;4.75;;;15.70;99.90;;;;;;5089944;28;20514;-82
2022/06/22 04:12:23;;;;;;;5.40;4.90;;;15.70;99.90;;;;;;5089091;28;20395;-81
2022/06/22 04:15:40;;;;;;;4.68;4.25;;;15.80;99.90;;;;;;5071908;28;20040;-81
2022/06/22 04:18:29;;;;;;;12.63;4.68;;;15.90;99.90;;;;;;5056145;28;20043;-81
2022/06/22 04:21:13;;;;;;;8.75;4.65;;;16.00;99.90;;;;;;5059198;28;20063;-81
2022/06/22 04:24:13;;;;;;;5.95;3.95;;;16.10;99.90;;;;;;5072584;28;20501;-82
2022/06/22 04:27:13;;;;;;;7.55;4.63;;;16.30;99.90;;;;;;5070926;28;20776;-83
2022/06/22 04:30:17;;;;;;;14.95;6.50;;;16.40;99.90;;;;;;5089995;28;20048;-83
2022/06/22 04:33:43;;;;;;;4.55;3.97;;;16.50;99.90;;;;;;5074811;28;20051;-83
2022/06/22 04:36:44;;;;;;;4.88;4.32;;;16.60;99.90;;;;;;5088382;28;20043;-82
2022/06/22 04:39:43;;;;;;;7.10;5.53;;;16.60;99.90;;;;;;5068290;28;20056;-82
2022/06/22 04:42:29;;;;;;;5.80;4.22;;;16.70;99.90;;;;;;5068445;28;20041;-84
2022/06/22 04:45:33;;;;;;;4.05;3.65;;;16.70;99.90;;;;;;5050483;28;20064;-84
2022/06/22 04:48:32;;;;;;;4.78;4.38;;;16.70;99.90;;;;;;5066532;28;20071;-83
2022/06/22 04:51:20;;;;;;;5.10;4.60;;;16.70;99.90;;;;;;5033007;28;20041;-84
2022/06/22 04:54:17;;;;;;;5.80;4.93;;;16.80;99.90;;;;;;5050913;28;20582;-85
2022/06/22 04:57:07;;;;;;;18.08;5.22;;;16.90;99.90;;;;;;5068247;28;20048;-78
2022/06/22 04:59:54;;;;;;;5.77;5.20;;;17.00;99.90;;;;;;5068116;28;20119;-79
2022/06/22 05:02:43;;;;;;;6.70;4.40;;;17.20;99.90;;;;;;5068303;28;20044;-78
2022/06/22 05:05:34;;;;;;;19.15;6.43;;;17.30;99.90;;;;;;5070439;28;20053;-79
2022/06/22 05:08:35;;;;;;;5.10;4.70;;;17.50;99.90;;;;;;5087700;28;20036;-78
2022/06/22 05:11:27;;;;;;;7.80;4.53;;;17.70;99.90;;;;;;5088020;28;20040;-78
2022/06/22 05:14:14;;;;;;;4.70;4.18;;;18.00;99.90;;;;;;5088039;28;20051;-78
2022/06/22 05:17:02;;;;;;;8.43;5.93;;;18.10;99.90;;;;;;5087753;28;20063;-78
2022/06/22 05:19:59;;;;;;;8.35;3.38;;;18.20;99.90;;;;;;5065894;28;20051;-77
2022/06/22 05:22:44;;;;;;;7.40;4.93;;;18.30;99.90;;;;;;5067701;28;20055;-78
2022/06/22 05:25:32;;;;;;;4.80;4.40;;;18.40;99.90;;;;;;5067875;28;20392;-77
2022/06/22 05:28:23;;;;;;;6.30;4.43;;;18.40;99.90;;;;;;5067648;28;20579;-78
2022/06/22 05:31:24;;;;;;;7.35;4.35;;;18.50;99.90;;;;;;5067344;28;20496;-78
2022/06/22 05:34:18;;;;;;;7.78;4.20;;;18.60;99.90;;;;;;5067274;28;20668;-79
2022/06/22 05:40:48;;;;;;;7.30;4.97;;;18.70;99.90;;;;;;5069890;28;20044;-78
2022/06/22 05:43:40;;;;;;;9.00;3.58;;;18.70;99.90;;;;;;5088198;28;20040;-78
2022/06/22 05:46:25;;;;;;;5.22;3.28;;;18.80;99.90;;;;;;5087514;28;21484;-78
2022/06/22 05:49:18;;;;;;;5.75;4.38;;;18.80;99.90;;;;;;5087679;28;20059;-79
2022/06/22 05:52:40;;;;;;;4.65;3.20;;;18.80;99.90;;;;;;5087031;28;20040;-78
2022/06/22 05:55:51;;;;;;;5.03;4.05;;;18.80;99.90;;;;;;5087278;28;20040;-78
2022/06/22 05:58:42;;;;;;;5.20;4.80;;;18.80;99.90;;;;;;5087012;28;20566;-78
2022/06/22 06:02:03;;;;;;;5.03;3.60;;;18.90;99.90;;;;;;5087996;28;20051;-79
2022/06/22 06:05:05;;;;;;;10.13;4.45;;;18.80;99.90;;;;;;5050333;28;20056;-78
2022/06/22 06:07:53;;;;;;;10.25;3.50;;;18.90;99.90;;;;;;5066531;28;20439;-78
2022/06/22 06:10:35;;;;;;;10.02;4.55;;;19.10;99.90;;;;;;5049751;28;20876;-77
2022/06/22 06:13:34;;;;;;;6.97;4.50;;;19.40;99.90;;;;;;5048460;28;20052;-77
2022/06/22 06:16:26;;;;;;;6.55;5.88;;;19.50;99.90;;;;;;5066771;28;20036;-76
2022/06/22 06:19:10;;;;;;;11.52;4.43;;;19.40;99.90;;;;;;5053625;28;20044;-83
2022/06/22 06:22:00;;;;;;;4.65;3.65;;;19.30;99.90;;;;;;5037784;28;20051;-85
2022/06/22 06:28:12;;;;;;;4.40;4.00;;;19.30;99.90;;;;;;5086379;28;20051;-76
2022/06/22 06:31:06;;;;;;;7.20;3.70;;;19.40;99.90;;;;;;5086603;28;20048;-76
2022/06/22 06:33:43;;;;;;;6.38;5.78;;;19.40;99.90;;;;;;5087082;28;20043;-76
2022/06/22 06:36:38;;;;;;;12.40;5.32;;;19.40;99.90;;;;;;5086498;28;20497;-76
2022/06/22 06:39:35;;;;;;;18.42;5.47;;;19.50;99.90;;;;;;5046557;28;20420;-76
2022/06/22 06:42:27;;;;;;;11.98;4.85;;;19.50;99.90;;;;;;5045554;28;20060;-76
2022/06/22 06:44:58;;;;;;;8.02;5.88;;;19.60;99.90;;;;;;5046941;28;20065;-76
2022/06/22 06:47:35;;;;;;;8.30;5.10;;;19.60;99.90;;;;;;5046157;28;20060;-76
2022/06/22 06:50:09;;;;;;;5.28;4.05;;;19.60;99.90;;;;;;5055058;28;20051;-76
2022/06/22 06:53:05;;;;;;;10.32;4.63;;;19.70;99.90;;;;;;5065950;28;20044;-76
2022/06/22 06:55:54;;;;;;;5.72;3.33;;;19.70;99.90;;;;;;5065964;28;20047;-76
2022/06/22 06:58:49;;;;;;;6.13;5.20;;;19.80;99.90;;;;;;5065814;28;20052;-76
2022/06/22 07:01:27;;;;;;;4.07;3.28;;;19.70;99.90;;;;;;5060540;28;20059;-76
2022/06/22 07:03:59;;;;;;;7.93;4.32;;;19.70;99.90;;;;;;5065926;28;20052;-76
2022/06/22 07:06:28;;;;;;;9.68;3.90;;;19.70;99.90;;;;;;5065694;28;20716;-77
2022/06/22 07:08:59;;;;;;;6.75;4.63;;;19.70;99.90;;;;;;5066524;28;20048;-76
2022/06/22 07:11:36;;;;;;;7.05;5.35;;;19.70;99.90;;;;;;5065455;28;20714;-77
2022/06/22 07:14:23;;;;;;;13.18;5.10;;;19.80;99.90;;;;;;5066214;28;20049;-76
2022/06/22 07:16:55;;;;;;;15.25;4.65;;;19.80;99.90;;;;;;5066507;28;20048;-76
2022/06/22 07:19:35;;;;;;;8.35;5.80;;;19.80;99.90;;;;;;5060605;28;20051;-76
2022/06/22 07:22:27;;;;;;;9.50;4.20;;;19.80;99.90;;;;;;5062631;28;20078;-77
2022/06/22 07:25:28;;;;;;;4.97;4.57;;;19.70;99.90;;;;;;5065125;28;20067;-76
2022/06/22 07:28:37;;;;;;;14.88;4.97;;;19.70;99.90;;;;;;5052180;28;20051;-76
2022/06/22 07:31:21;;;;;;;6.25;4.38;;;19.70;99.90;;;;;;5065708;28;20048;-76
2022/06/22 07:33:59;;;;;;;10.65;5.75;;;19.70;99.90;;;;;;5066144;28;20406;-76
2022/06/22 07:36:47;;;;;;;5.53;5.03;;;19.80;99.90;;;;;;5065078;28;20055;-76
2022/06/22 07:39:36;;;;;;;14.60;5.53;;;19.80;99.90;;;;;;5060829;28;20045;-77
2022/06/22 07:42:07;;;;;;;4.97;4.30;;;19.70;99.90;;;;;;5049973;28;20037;-76
2022/06/22 07:44:35;;;;;;;8.23;5.13;;;19.80;99.90;;;;;;5050282;28;20484;-76
2022/06/22 07:47:10;;;;;;;5.43;4.60;;;19.80;99.90;;;;;;5049933;28;20045;-76
2022/06/22 07:49:52;;;;;;;9.40;4.43;;;19.80;99.90;;;;;;5050080;28;20518;-77
2022/06/22 07:52:32;;;;;;;5.28;3.95;;;19.90;99.90;;;;;;5049758;28;20045;-76
2022/06/22 07:55:16;;;;;;;6.82;5.00;;;19.90;99.90;;;;;;5049422;28;20048;-76
2022/06/22 07:58:21;;;;;;;5.65;4.97;;;20.00;99.90;;;;;;5050598;28;20044;-77
2022/06/22 08:00:54;;;;;;;7.25;4.30;;;20.10;99.90;;;;;;5047013;28;20048;-76
2022/06/22 08:03:26;;;;;;;9.85;5.50;;;20.00;99.90;;;;;;5054678;28;20048;-76
2022/06/22 08:06:36;;;;;;;7.05;5.15;;;20.00;99.90;;;;;;5068330;28;20068;-76
2022/06/22 08:11:03;;;;;;;9.10;4.40;;;20.00;99.90;;;;;;5047184;28;20479;-76
2022/06/22 08:14:22;;;;;;;13.95;6.85;;;20.10;99.90;;;;;;5055655;28;20391;-77
2022/06/22 08:17:01;;;;;;;5.65;4.95;;;20.20;99.90;;;;;;5065318;28;20049;-77
2022/06/22 08:19:31;;;;;;;8.40;5.30;;;20.30;99.90;;;;;;5068924;28;20056;-77
2022/06/22 08:22:04;;;;;;;5.75;5.18;;;20.40;99.90;;;;;;5068774;28;20052;-77
2022/06/22 08:24:37;;;;;;;10.27;4.00;;;20.50;99.90;;;;;;5067905;28;20052;-77
2022/06/22 08:27:08;;;;;;;15.15;4.97;;;20.60;99.90;;;;;;5068628;28;20053;-77
2022/06/22 08:29:37;;;;;;;6.93;3.65;;;20.60;99.90;;;;;;5069147;28;20044;-77
2022/06/22 08:32:07;;;;;;;7.10;3.70;;;20.60;99.90;;;;;;5067234;28;20041;-77
2022/06/22 08:34:55;;;;;;;5.28;4.35;;;20.60;99.90;;;;;;5068362;28;20043;-77
2022/06/22 08:37:30;;;;;;;7.43;5.00;;;20.70;99.90;;;;;;5073187;28;20055;-76
2022/06/22 08:40:07;;;;;;;7.82;6.07;;;20.80;99.90;;;;;;5088479;28;20040;-76
2022/06/22 08:43:00;;;;;;;4.22;3.50;;;20.80;99.90;;;;;;5074109;28;20052;-77
2022/06/22 08:45:54;;;;;;;5.55;5.10;;;20.80;99.90;;;;;;5069183;28;20048;-77
2022/06/22 08:49:05;;;;;;;6.57;4.13;;;20.80;99.90;;;;;;5018125;28;20048;-77
2022/06/22 08:52:08;;;;;;;6.28;4.97;;;20.80;99.90;;;;;;5074598;28;20040;-76
2022/06/22 08:55:21;;;;;;;8.57;4.22;;;20.70;99.90;;;;;;4994564;28;20046;-77
2022/06/22 08:58:25;;;;;;;12.52;5.75;;;20.70;99.90;;;;;;5041252;28;20491;-77
2022/06/22 09:01:16;;;;;;;8.75;4.63;;;20.70;99.90;;;;;;5053265;28;20052;-77
2022/06/22 09:03:59;;;;;;;7.15;4.75;;;20.70;99.90;;;;;;5067778;28;20938;-77
2022/06/22 09:06:48;;;;;;;5.82;4.88;;;20.70;99.90;;;;;;5068086;28;20048;-77
2022/06/22 09:09:36;;;;;;;9.73;5.20;;;20.60;99.90;;;;;;5068400;28;20067;-76
2022/06/22 09:12:11;;;;;;;9.75;5.00;;;20.60;99.90;;;;;;5067408;28;20049;-77
2022/06/22 09:14:54;;;;;;;16.38;5.75;;;20.70;99.90;;;;;;5068103;28;20044;-77
2022/06/22 09:17:45;;;;;;;13.27;6.15;;;20.70;99.90;;;;;;5068343;28;20040;-77
2022/06/22 09:20:38;;;;;;;8.77;4.05;;;20.70;99.90;;;;;;5072008;28;20051;-76
2022/06/22 09:23:18;;;;;;;6.78;4.50;;;20.80;99.90;;;;;;5067757;28;20394;-76
2022/06/22 09:26:20;;;;;;;12.07;5.07;;;20.80;99.90;;;;;;5068322;28;20048;-77
2022/06/22 09:29:01;;;;;;;7.45;4.47;;;20.80;99.90;;;;;;5050681;28;20052;-76
2022/06/22 09:31:53;;;;;;;5.93;3.80;;;20.80;99.90;;;;;;5067830;28;20071;-76
2022/06/22 09:34:37;;;;;;;6.63;3.42;;;20.90;99.90;;;;;;5067725;28;20052;-76
2022/06/22 09:37:42;;;;;;;13.50;5.03;;;20.80;99.90;;;;;;5072654;28;20052;-77
2022/06/22 09:40:39;;;;;;;5.38;3.67;;;20.90;99.90;;;;;;5087937;28;20044;-76
2022/06/22 09:43:44;;;;;;;23.98;5.72;;;21.00;99.90;;;;;;5087785;28;20040;-77
2022/06/22 09:46:36;;;;;;;10.82;4.57;;;21.00;99.90;;;;;;5087747;28;20051;-77
2022/06/22 09:49:22;;;;;;;12.32;4.30;;;21.10;99.90;;;;;;5088085;28;20047;-76
2022/06/22 09:52:26;;;;;;;14.00;4.63;;;21.20;99.90;;;;;;5068766;28;20044;-77
2022/06/22 09:58:25;;;;;;;14.57;3.90;;;21.30;99.90;;;;;;5086943;28;20046;-77
2022/06/22 10:01:02;;;;;;;7.50;3.95;;;21.20;99.90;;;;;;5037380;28;20044;-76
2022/06/22 10:04:04;;;;;;;10.90;3.47;;;21.20;99.90;;;;;;5077279;28;20048;-76
2022/06/22 10:06:51;;;;;;;9.50;3.30;;;21.20;99.90;;;;;;5066855;28;20051;-76
2022/06/22 10:09:25;;;;;;;8.48;4.03;;;21.30;99.90;;;;;;5067384;28;20051;-76
2022/06/22 10:12:10;;;;;;;9.35;5.85;;;21.30;99.90;;;;;;5066968;28;20044;-76
2022/06/22 10:15:02;;;;;;;10.27;3.50;;;21.40;99.90;;;;;;5066849;28;20032;-76
2022/06/22 10:17:53;;;;;;;8.70;4.65;;;21.50;99.90;;;;;;5084778;28;20044;-77
2022/06/22 10:20:29;;;;;;;17.48;4.82;;;21.60;99.90;;;;;;5086316;28;20067;-77
2022/06/22 10:23:02;;;;;;;11.13;4.28;;;21.60;99.90;;;;;;5086727;28;20044;-76
2022/06/22 10:25:59;;;;;;;14.00;3.60;;;21.70;99.90;;;;;;5069116;28;20044;-76
2022/06/22 10:28:45;;;;;;;14.20;3.90;;;21.70;99.90;;;;;;5086465;28;20052;-76
2022/06/22 10:31:32;;;;;;;6.75;4.05;;;22.00;99.90;;;;;;5086661;28;20044;-76
2022/06/22 10:34:25;;;;;;;5.38;3.25;;;22.00;99.90;;;;;;5086498;28;20055;-77
2022/06/22 10:37:05;;;;;;;5.82;3.55;;;22.10;99.90;;;;;;5087008;28;20048;-76
2022/06/22 10:39:52;;;;;;;10.88;6.05;;;22.20;99.90;;;;;;5086282;28;20055;-77
2022/06/22 10:45:54;;;;;;;14.27;5.15;;;22.30;99.90;;;;;;5048835;28;20049;-77
2022/06/22 10:48:50;;;;;;;10.38;5.05;;;22.40;99.90;;;;;;5065925;28;20051;-77
2022/06/22 10:51:37;;;;;;;13.70;5.53;;;22.40;99.90;;;;;;5048271;28;20431;-76
2022/06/22 10:54:26;;;;;;;6.18;4.38;;;22.50;99.90;;;;;;5065965;28;20048;-77
2022/06/22 10:57:05;;;;;;;8.98;5.47;;;22.40;99.90;;;;;;5066704;28;20048;-77
2022/06/22 10:59:38;;;;;;;9.90;3.95;;;22.40;99.90;;;;;;5066320;28;20051;-77
2022/06/22 11:03:09;;;;;;;6.65;5.95;;;22.40;99.90;;;;;;5065804;28;20044;-77
2022/06/22 11:05:53;;;;;;;8.77;4.43;;;22.40;99.90;;;;;;5066330;28;20048;-76
2022/06/22 11:08:59;;;;;;;15.27;5.25;;;22.40;99.90;;;;;;5066254;28;20071;-77
2022/06/22 11:11:42;;;;;;;9.30;3.85;;;22.40;99.90;;;;;;5065975;28;20044;-76
2022/06/22 11:15:02;;;;;;;11.15;4.00;;;22.40;99.90;;;;;;5066083;28;20044;-77
2022/06/22 11:17:43;;;;;;;13.68;5.53;;;22.50;99.90;;;;;;4968274;28;20061;-77
2022/06/22 11:20:27;;;;;;;6.25;5.07;;;22.40;99.90;;;;;;5061599;28;20044;-76
2022/06/22 11:23:00;;;;;;;9.40;5.03;;;22.50;99.90;;;;;;5066257;28;20048;-77
2022/06/22 11:31:52;;;;;;;12.90;4.85;;;22.40;99.90;;;;;;5065430;28;20044;-77
2022/06/22 11:34:41;;;;;;;11.63;5.45;;;22.30;99.90;;;;;;5065692;28;20055;-77
2022/06/22 11:37:23;;;;;;;7.03;3.75;;;22.30;99.90;;;;;;5059729;28;20074;-77
2022/06/22 11:40:22;;;;;;;;;;;22.30;99.90;;;;;;5086237;28;20051;-77
2022/06/22 11:43:04;;;;;;;7.68;4.38;;;22.20;99.90;;;;;;5067761;28;19924;-78
2022/06/22 11:46:07;;;;;;;13.57;5.55;;;22.20;99.90;;;;;;5086154;28;20067;-76
2022/06/22 11:48:57;;;;;;;21.52;5.40;;;22.10;99.90;;;;;;5066652;28;20055;-82
2022/06/22 11:51:39;;;;;;;13.43;5.50;;;22.00;99.90;;;;;;5067639;28;20044;-78
2022/06/22 11:54:31;;;;;;;12.43;4.53;;;22.00;99.90;;;;;;5086081;28;20044;-78
2022/06/22 11:57:02;;;;;;;11.10;5.00;;;22.00;99.90;;;;;;5086132;28;20055;-77
2022/06/22 11:59:58;;;;;;;14.35;5.70;;;22.00;99.90;;;;;;5066988;28;20055;-77
2022/06/22 12:02:48;;;;;;;20.70;8.23;;;22.00;99.90;;;;;;5085512;28;20036;-78
2022/06/22 12:05:28;;;;;;;15.93;6.63;;;22.00;99.90;;;;;;5085681;28;20055;-77
2022/06/22 12:08:26;;;;;;;8.63;5.30;;;22.00;99.90;;;;;;5085679;28;20044;-77
2022/06/22 12:11:23;;;;;;;9.18;4.30;;;22.00;99.90;;;;;;5085774;28;20036;-77
2022/06/22 12:17:07;;;;;;;10.52;4.20;;;22.10;99.90;;;;;;5069189;28;20122;-77
2022/06/22 12:19:35;;;;;;;14.90;6.47;;;22.20;99.90;;;;;;5084802;28;20051;-77
2022/06/22 12:22:32;;;;;;;16.52;6.88;;;22.20;99.90;;;;;;5085681;28;20481;-77
2022/06/22 12:25:34;;;;;;;6.75;5.28;;;22.00;99.90;;;;;;5085868;28;20051;-79
2022/06/22 12:28:02;;;;;;;22.35;7.40;;;21.90;99.90;;;;;;5069516;28;20055;-78
2022/06/22 12:30:54;;;;;;;20.33;7.50;;;21.70;99.90;;;;;;5089085;28;20055;-77
2022/06/22 12:33:31;;;;;;;11.15;5.35;;;21.70;99.90;;;;;;5089454;28;20044;-77
2022/06/22 12:36:37;;;;;;;10.63;6.47;;;21.70;99.90;;;;;;5088810;28;20048;-77
2022/06/22 12:39:21;;;;;;;17.35;6.28;;;21.60;99.90;;;;;;5028460;28;20049;-77
2022/06/22 12:42:33;;;;;;;18.27;6.15;;;21.60;99.90;;;;;;5029394;28;20048;-77
2022/06/22 12:45:16;;;;;;;13.60;5.53;;;21.60;99.90;;;;;;4974055;28;20057;-77
2022/06/22 12:48:00;;;;;;;7.97;5.40;;;21.50;99.90;;;;;;4986525;28;20054;-83
2022/06/22 12:50:53;;;;;;;6.00;5.32;;;21.60;99.90;;;;;;5016787;28;20045;-81
2022/06/22 12:54:09;;;;;;;12.45;6.70;;;21.50;99.90;;;;;;5029346;28;20065;-82
2022/06/22 12:56:49;;;;;;;13.38;7.50;;;21.50;99.90;;;;;;5026133;28;20054;-84
2022/06/22 13:00:20;;;;;;;12.45;6.57;;;21.50;99.90;;;;;;5031714;28;20048;-82
2022/06/22 13:03:58;;;;;;;16.30;7.03;;;21.50;99.90;;;;;;5042132;28;20065;-82
2022/06/22 13:07:26;;;;;;;10.93;6.93;;;21.60;99.90;;;;;;5028427;28;20283;-82
2022/06/22 13:11:44;;;;;;;15.43;7.22;;;21.70;99.90;;;;;;5026926;28;20400;-84
2022/06/22 13:16:07;;;;;;;12.00;7.25;;;22.00;99.90;;;;;;5046181;28;20045;-80
2022/06/22 13:23:18;;;;;;;19.35;9.85;;;22.00;99.90;;;;;;5048122;28;20036;-82
2022/06/22 13:26:15;;;;;;;10.23;8.73;;;21.80;99.90;;;;;;5030260;28;20053;-82
2022/06/22 13:29:10;;;;;;;17.10;9.07;;;21.80;99.90;;;;;;5046156;28;20049;-81
2022/06/22 13:31:42;;;;;;;10.38;8.75;;;21.70;99.90;;;;;;5030022;28;20056;-82
2022/06/22 13:34:15;;;;;;;12.05;9.43;;;21.70;99.90;;;;;;5042165;28;20060;-81
2022/06/22 13:37:03;;;;;;;13.10;8.35;;;21.70;99.90;;;;;;5029769;28;20053;-81
2022/06/22 13:39:56;;;;;;;26.15;9.10;;;21.70;99.90;;;;;;5087092;28;20067;-81
2022/06/22 13:42:27;;;;;;;13.30;8.32;;;21.70;99.90;;;;;;5070062;28;20054;-80
2022/06/22 13:45:23;;;;;;;8.25;7.30;;;21.80;99.90;;;;;;5088208;28;20052;-83
2022/06/22 13:48:20;;;;;;;12.85;8.52;;;21.80;99.90;;;;;;5087742;28;20048;-83
2022/06/22 13:51:19;;;;;;;11.43;7.25;;;21.70;99.90;;;;;;5087313;28;20075;-83
2022/06/22 13:54:26;;;;;;;9.43;7.22;;;21.70;99.90;;;;;;5088125;28;20110;-81
2022/06/22 13:57:12;;;;;;;8.73;5.78;;;21.80;99.90;;;;;;5071525;28;20036;-83
2022/06/22 14:00:04;;;;;;;11.98;7.28;;;21.80;99.90;;;;;;5086952;28;20055;-81
2022/06/22 14:02:51;;;;;;;9.82;6.47;;;21.70;99.90;;;;;;5086053;28;20858;-81
2022/06/22 14:05:30;;;;;;;14.90;6.15;;;21.70;99.90;;;;;;5067883;28;20059;-82
2022/06/22 14:07:58;;;;;;;17.38;7.15;;;21.80;99.90;;;;;;5066590;28;20056;-81
2022/06/22 14:10:50;;;;;;;11.27;5.85;;;22.00;99.90;;;;;;5051343;28;20044;-81
2022/06/22 14:13:40;;;;;;;12.23;5.18;;;22.10;99.90;;;;;;5087952;28;20059;-82
2022/06/22 14:16:20;;;;;;;9.65;5.40;;;22.10;99.90;;;;;;5087124;28;20427;-82
2022/06/22 14:19:14;;;;;;;13.65;5.93;;;21.90;99.90;;;;;;5086507;28;20759;-81
2022/06/22 14:22:00;;;;;;;12.63;6.80;;;21.80;99.90;;;;;;5069490;28;20522;-84
2022/06/22 14:24:42;;;;;;;7.25;6.53;;;21.70;99.90;;;;;;5086549;28;20052;-82
2022/06/22 14:27:26;;;;;;;17.95;8.18;;;21.60;99.90;;;;;;5086850;28;20048;-84
2022/06/22 14:30:13;;;;;;;10.15;7.03;;;21.60;99.90;;;;;;5087122;28;20044;-81
2022/06/22 14:33:02;;;;;;;11.48;6.65;;;21.60;99.90;;;;;;5068747;28;20048;-82
2022/06/22 14:36:04;;;;;;;10.10;8.65;;;21.70;99.90;;;;;;5068628;28;20048;-82
2022/06/22 14:39:10;;;;;;;15.40;6.30;;;21.60;99.90;;;;;;5086572;28;20047;-85
2022/06/22 14:41:56;;;;;;;14.00;9.02;;;21.60;99.90;;;;;;5025192;28;20419;-84
2022/06/22 14:44:47;;;;;;;16.17;6.68;;;21.50;99.90;;;;;;5065971;28;20053;-82
2022/06/22 14:47:32;;;;;;;16.05;7.30;;;21.40;99.90;;;;;;5049036;28;20487;-84
2022/06/22 14:50:30;;;;;;;12.85;6.95;;;21.30;99.90;;;;;;5065512;28;20052;-82
2022/06/22 14:53:17;;;;;;;17.30;6.55;;;21.30;99.90;;;;;;5066502;28;20526;-82
2022/06/22 14:56:47;;;;;;;5.85;4.85;;;21.30;99.90;;;;;;5070234;28;20465;-81
2022/06/22 15:00:02;;;;;;;12.60;4.68;;;21.10;99.90;;;;;;5086483;28;20051;-83
2022/06/22 15:02:51;;;;;;;9.27;4.63;;;21.10;99.90;;;;;;5086578;28;20047;-81
2022/06/22 15:05:55;;;;;;;12.68;4.13;;;21.10;99.90;;;;;;5086336;28;20063;-81
2022/06/22 15:08:58;;;;;;;7.32;4.18;;;21.20;99.90;;;;;;5065712;28;20055;-81
2022/06/22 15:15:16;;;;;;;8.93;5.15;;;21.30;99.90;;;;;;5066061;28;20047;-81
2022/06/22 15:18:20;;;;;;;10.95;5.05;;;21.10;99.90;;;;;;5065940;28;20048;-84
2022/06/22 15:21:24;;;;;;;12.02;4.93;;;21.00;99.90;;;;;;5036860;28;20053;-83
2022/06/22 15:24:52;;;;;;;7.07;3.25;;;20.80;99.90;;;;;;5076690;28;20048;-82
2022/06/22 15:27:39;;;;;;;4.57;3.60;;;20.60;99.90;;;;;;5045200;28;20429;-82
2022/06/22 15:30:24;;;;;;;6.82;3.80;;;20.50;99.90;;;;;;5054444;28;20051;-83
2022/06/22 15:33:15;;;;;;;6.40;3.35;;;20.60;99.90;;;;;;5053216;28;20408;-84
2022/06/22 15:36:11;;;;;;;6.75;4.10;;;20.50;99.90;;;;;;5065407;28;20044;-80
2022/06/22 15:39:23;;;;;;;8.63;4.20;;;20.60;99.90;;;;;;5043805;28;20079;-81
2022/06/22 15:42:28;;;;;;;12.77;5.85;;;20.60;99.90;;;;;;5062723;28;20832;-82
2022/06/22 15:45:45;;;;;;;5.18;3.30;;;20.60;99.90;;;;;;5066303;28;20060;-80
2022/06/22 15:48:47;;;;;;;7.95;6.03;;;20.60;99.90;;;;;;5048646;28;20049;-81
2022/06/22 15:51:32;;;;;;;5.57;4.82;;;20.50;99.90;;;;;;5056522;28;20059;-82
2022/06/22 15:54:20;;;;;;;5.50;4.10;;;20.40;99.90;;;;;;5049435;28;20391;-78
2022/06/22 15:57:13;;;;;;;9.45;5.28;;;20.40;99.90;;;;;;5051153;28;20041;-77
2022/06/22 16:00:02;;;;;;;8.05;4.82;;;20.40;99.90;;;;;;5045544;28;20041;-77
2022/06/22 16:02:49;;;;;;;9.70;5.63;;;20.40;99.90;;;;;;5047102;28;20048;-77
2022/06/22 16:05:53;;;;;;;10.20;6.78;;;20.30;99.90;;;;;;5049702;28;20076;-77
2022/06/22 16:08:52;;;;;;;11.27;5.10;;;20.20;99.90;;;;;;5024946;28;20056;-77
2022/06/22 16:14:40;;;;;;;10.52;6.00;;;20.10;99.90;;;;;;5050309;28;20060;-77
2022/06/22 16:17:27;;;;;;;8.75;5.97;;;20.10;99.90;;;;;;5049451;28;20060;-77
2022/06/22 16:20:03;;;;;;;6.90;5.00;;;20.00;99.90;;;;;;5061096;28;20514;-77
2022/06/22 16:22:46;;;;;;;18.98;6.82;;;20.10;99.90;;;;;;5067790;28;20059;-77
2022/06/22 16:25:22;;;;;;;11.52;6.63;;;20.00;99.90;;;;;;5069430;28;20049;-77
2022/06/22 16:28:07;;;;;;;13.52;6.07;;;20.00;99.90;;;;;;5068813;28;20099;-81
2022/06/22 16:30:47;;;;;;;11.80;8.40;;;19.90;99.90;;;;;;5069030;28;20419;-80
2022/06/22 16:33:22;;;;;;;12.10;7.30;;;20.00;99.90;;;;;;5069240;28;20066;-78
2022/06/22 16:36:17;;;;;;;10.52;7.18;;;19.90;99.90;;;;;;5066369;28;20053;-78
2022/06/22 16:39:00;;;;;;;13.75;7.28;;;19.90;99.90;;;;;;5067236;28;20033;-78